Time;durP1;ratioP1;P1;durP2;ratioP2;P2;SDS_P1;SDS_P2;PMS_P1;PMS_P2;Temp;Humidity;BMP_temperature;BMP_pressure;BME280_temperature;BME280_humidity;BME280_pressure;Samples;Min_cycle;Max_cycle;Signal;HPM_P1;HPM_P2
2022/05/18 00:00:20;;;;;;;7.6;6.900001;;;;;;;12.61;74.37012;95813.08;;;;
2022/05/18 00:01:24;;;;;;;7.6;6.900001;;;;;;;12.61;74.37012;95813.08;;;;
2022/05/18 00:02:25;;;;;;;7.6;6.900001;;;;;;;12.61;74.37012;95813.08;;;;
2022/05/18 00:03:26;;;;;;;7.6;6.900001;;;;;;;12.61;74.37012;95813.08;;;;
2022/05/18 00:04:29;;;;;;;7.6;6.900001;;;;;;;12.61;74.37012;95813.08;;;;
2022/05/18 00:05:29;;;;;;;8.100002;7;;;;;;;12.35;74.97363;95830.41;;;;
2022/05/18 00:06:31;;;;;;;8.100002;7;;;;;;;12.35;74.97363;95830.41;;;;
2022/05/18 00:07:31;;;;;;;8.100002;7;;;;;;;12.35;74.97363;95830.41;;;;
2022/05/18 00:08:35;;;;;;;8.100002;7;;;;;;;12.35;74.97363;95830.41;;;;
2022/05/18 00:09:36;;;;;;;8.100002;7;;;;;;;12.35;74.97363;95830.41;;;;
2022/05/18 00:10:36;;;;;;;8.100002;7;;;;;;;12.35;74.97363;95830.41;;;;
2022/05/18 00:11:40;;;;;;;8.100002;7;;;;;;;12.35;74.97363;95830.41;;;;
2022/05/18 00:12:41;;;;;;;8.100002;7;;;;;;;12.35;74.97363;95830.41;;;;
2022/05/18 00:13:43;;;;;;;8.100002;7;;;;;;;12.35;74.97363;95830.41;;;;
2022/05/18 00:14:46;;;;;;;8.100002;7;;;;;;;12.35;74.97363;95830.41;;;;
2022/05/18 00:15:47;;;;;;;8.75;6.95;;;;;;;12.17;75.2041;95824.84;;;;
2022/05/18 00:16:47;;;;;;;8.75;6.95;;;;;;;12.17;75.2041;95824.84;;;;
2022/05/18 00:17:48;;;;;;;8.75;6.95;;;;;;;12.17;75.2041;95824.84;;;;
2022/05/18 00:18:49;;;;;;;8.75;6.95;;;;;;;12.17;75.2041;95824.84;;;;
2022/05/18 00:19:49;;;;;;;8.75;6.95;;;;;;;12.17;75.2041;95824.84;;;;
2022/05/18 00:20:50;;;;;;;8.75;6.95;;;;;;;12.17;75.2041;95824.84;;;;
2022/05/18 00:21:50;;;;;;;8.75;6.95;;;;;;;12.17;75.2041;95824.84;;;;
2022/05/18 00:22:51;;;;;;;8.75;6.95;;;;;;;12.17;75.2041;95824.84;;;;
2022/05/18 00:23:53;;;;;;;8.75;6.95;;;;;;;12.17;75.2041;95824.84;;;;
2022/05/18 00:24:55;;;;;;;8.75;6.95;;;;;;;12.17;75.2041;95824.84;;;;
2022/05/18 00:25:55;;;;;;;8.75;6.95;;;;;;;12.17;75.2041;95824.84;;;;
2022/05/18 00:26:56;;;;;;;8.050001;7.250001;;;;;;;12.08;75.5332;95821.72;;;;
2022/05/18 00:27:57;;;;;;;8.050001;7.250001;;;;;;;12.08;75.5332;95821.72;;;;
2022/05/18 00:28:57;;;;;;;8.050001;7.250001;;;;;;;12.08;75.5332;95821.72;;;;
2022/05/18 00:29:58;;;;;;;8.050001;7.250001;;;;;;;12.08;75.5332;95821.72;;;;
2022/05/18 00:30:58;;;;;;;8.050001;7.250001;;;;;;;12.08;75.5332;95821.72;;;;
2022/05/18 00:32:00;;;;;;;8.050001;7.250001;;;;;;;12.08;75.5332;95821.72;;;;
2022/05/18 00:33:04;;;;;;;8.050001;7.250001;;;;;;;12.08;75.5332;95821.72;;;;
2022/05/18 00:34:06;;;;;;;8.050001;7.250001;;;;;;;12.08;75.5332;95821.72;;;;
2022/05/18 00:35:07;;;;;;;8.050001;7.250001;;;;;;;12.08;75.5332;95821.72;;;;
2022/05/18 00:36:09;;;;;;;8.050001;7.250001;;;;;;;12.08;75.5332;95821.72;;;;
2022/05/18 00:37:10;;;;;;;7.9;7.099999;;;;;;;11.96;75.75;95827.36;;;;
2022/05/18 00:38:11;;;;;;;7.9;7.099999;;;;;;;11.96;75.75;95827.36;;;;
2022/05/18 00:39:12;;;;;;;7.9;7.099999;;;;;;;11.96;75.75;95827.36;;;;
2022/05/18 00:40:12;;;;;;;7.9;7.099999;;;;;;;11.96;75.75;95827.36;;;;
2022/05/18 00:41:20;;;;;;;7.9;7.099999;;;;;;;11.96;75.75;95827.36;;;;
2022/05/18 00:42:20;;;;;;;7.9;7.099999;;;;;;;11.96;75.75;95827.36;;;;
2022/05/18 00:43:24;;;;;;;7.9;7.099999;;;;;;;11.96;75.75;95827.36;;;;
2022/05/18 00:44:42;;;;;;;7.9;7.099999;;;;;;;11.96;75.75;95827.36;;;;
2022/05/18 00:45:44;;;;;;;7.9;7.099999;;;;;;;11.96;75.75;95827.36;;;;
2022/05/18 00:46:45;;;;;;;7.9;7.099999;;;;;;;11.96;75.75;95827.36;;;;
2022/05/18 00:47:45;;;;;;;9.35;7.050001;;;;;;;11.87;75.98047;95842.36;;;;
2022/05/18 00:48:46;;;;;;;9.35;7.050001;;;;;;;11.87;75.98047;95842.36;;;;
2022/05/18 00:49:47;;;;;;;9.35;7.050001;;;;;;;11.87;75.98047;95842.36;;;;
2022/05/18 00:50:53;;;;;;;9.35;7.050001;;;;;;;11.87;75.98047;95842.36;;;;
2022/05/18 00:51:56;;;;;;;9.35;7.050001;;;;;;;11.87;75.98047;95842.36;;;;
2022/05/18 00:52:57;;;;;;;9.35;7.050001;;;;;;;11.87;75.98047;95842.36;;;;
2022/05/18 00:54:02;;;;;;;9.35;7.050001;;;;;;;11.87;75.98047;95842.36;;;;
2022/05/18 00:55:08;;;;;;;9.35;7.050001;;;;;;;11.87;75.98047;95842.36;;;;
2022/05/18 00:56:12;;;;;;;9.35;7.050001;;;;;;;11.87;75.98047;95842.36;;;;
2022/05/18 00:57:19;;;;;;;9.35;7.050001;;;;;;;11.87;75.98047;95842.36;;;;
2022/05/18 00:58:26;;;;;;;8.049999;7.349999;;;;;;;11.69;76.18848;95844.7;;;;
2022/05/18 00:59:32;;;;;;;8.049999;7.349999;;;;;;;11.69;76.18848;95844.7;;;;
2022/05/18 01:00:38;;;;;;;8.049999;7.349999;;;;;;;11.69;76.18848;95844.7;;;;
2022/05/18 01:01:40;;;;;;;8.049999;7.349999;;;;;;;11.69;76.18848;95844.7;;;;
2022/05/18 01:02:41;;;;;;;8.049999;7.349999;;;;;;;11.69;76.18848;95844.7;;;;
2022/05/18 01:03:46;;;;;;;8.049999;7.349999;;;;;;;11.69;76.18848;95844.7;;;;
2022/05/18 01:04:50;;;;;;;8.049999;7.349999;;;;;;;11.69;76.18848;95844.7;;;;
2022/05/18 01:05:55;;;;;;;8.049999;7.349999;;;;;;;11.69;76.18848;95844.7;;;;
2022/05/18 01:07:02;;;;;;;8.049999;7.349999;;;;;;;11.69;76.18848;95844.7;;;;
2022/05/18 01:08:08;;;;;;;8.049999;7.349999;;;;;;;11.69;76.18848;95844.7;;;;
2022/05/18 01:09:10;;;;;;;8.299999;7.349999;;;;;;;11.62;76.4873;95843.05;;;;
2022/05/18 01:10:16;;;;;;;8.299999;7.349999;;;;;;;11.62;76.4873;95843.05;;;;
2022/05/18 01:11:17;;;;;;;8.299999;7.349999;;;;;;;11.62;76.4873;95843.05;;;;
2022/05/18 01:12:18;;;;;;;8.299999;7.349999;;;;;;;11.62;76.4873;95843.05;;;;
2022/05/18 01:13:20;;;;;;;8.299999;7.349999;;;;;;;11.62;76.4873;95843.05;;;;
2022/05/18 01:14:20;;;;;;;8.299999;7.349999;;;;;;;11.62;76.4873;95843.05;;;;
2022/05/18 01:15:27;;;;;;;8.299999;7.349999;;;;;;;11.62;76.4873;95843.05;;;;
2022/05/18 01:16:27;;;;;;;8.299999;7.349999;;;;;;;11.62;76.4873;95843.05;;;;
2022/05/18 01:17:29;;;;;;;8.299999;7.349999;;;;;;;11.62;76.4873;95843.05;;;;
2022/05/18 01:18:31;;;;;;;8.299999;7.349999;;;;;;;11.62;76.4873;95843.05;;;;
2022/05/18 01:19:32;;;;;;;8.950001;7.550001;;;;;;;11.5;76.64063;95841.94;;;;
2022/05/18 01:20:36;;;;;;;8.950001;7.550001;;;;;;;11.5;76.64063;95841.94;;;;
2022/05/18 01:21:37;;;;;;;8.950001;7.550001;;;;;;;11.5;76.64063;95841.94;;;;
2022/05/18 01:22:48;;;;;;;8.950001;7.550001;;;;;;;11.5;76.64063;95841.94;;;;
2022/05/18 01:23:58;;;;;;;8.950001;7.550001;;;;;;;11.5;76.64063;95841.94;;;;
2022/05/18 01:25:06;;;;;;;8.950001;7.550001;;;;;;;11.5;76.64063;95841.94;;;;
2022/05/18 01:26:18;;;;;;;8.950001;7.550001;;;;;;;11.5;76.64063;95841.94;;;;
2022/05/18 01:27:34;;;;;;;8.950001;7.550001;;;;;;;11.5;76.64063;95841.94;;;;
2022/05/18 01:28:35;;;;;;;8.950001;7.550001;;;;;;;11.5;76.64063;95841.94;;;;
2022/05/18 01:29:39;;;;;;;8.950001;7.550001;;;;;;;11.5;76.64063;95841.94;;;;
2022/05/18 01:30:42;;;;;;;9.399999;7.799999;;;;;;;11.43;76.84082;95838.58;;;;
2022/05/18 01:31:45;;;;;;;9.399999;7.799999;;;;;;;11.43;76.84082;95838.58;;;;
2022/05/18 01:32:49;;;;;;;9.399999;7.799999;;;;;;;11.43;76.84082;95838.58;;;;
2022/05/18 01:33:53;;;;;;;9.399999;7.799999;;;;;;;11.43;76.84082;95838.58;;;;
2022/05/18 01:34:53;;;;;;;9.399999;7.799999;;;;;;;11.43;76.84082;95838.58;;;;
2022/05/18 01:35:54;;;;;;;9.399999;7.799999;;;;;;;11.43;76.84082;95838.58;;;;
2022/05/18 01:36:54;;;;;;;9.399999;7.799999;;;;;;;11.43;76.84082;95838.58;;;;
2022/05/18 01:37:57;;;;;;;9.399999;7.799999;;;;;;;11.43;76.84082;95838.58;;;;
2022/05/18 01:38:58;;;;;;;9.399999;7.799999;;;;;;;11.43;76.84082;95838.58;;;;
2022/05/18 01:39:59;;;;;;;9.399999;7.799999;;;;;;;11.43;76.84082;95838.58;;;;
2022/05/18 01:41:03;;;;;;;8.85;7.9;;;;;;;11.29;76.97754;95843.53;;;;
2022/05/18 01:42:11;;;;;;;8.85;7.9;;;;;;;11.29;76.97754;95843.53;;;;
2022/05/18 01:43:23;;;;;;;8.85;7.9;;;;;;;11.29;76.97754;95843.53;;;;
2022/05/18 01:44:27;;;;;;;8.85;7.9;;;;;;;11.29;76.97754;95843.53;;;;
2022/05/18 01:45:28;;;;;;;8.85;7.9;;;;;;;11.29;76.97754;95843.53;;;;
2022/05/18 01:46:29;;;;;;;8.85;7.9;;;;;;;11.29;76.97754;95843.53;;;;
2022/05/18 01:47:31;;;;;;;8.85;7.9;;;;;;;11.29;76.97754;95843.53;;;;
2022/05/18 01:48:33;;;;;;;8.85;7.9;;;;;;;11.29;76.97754;95843.53;;;;
2022/05/18 01:49:37;;;;;;;8.85;7.9;;;;;;;11.29;76.97754;95843.53;;;;
2022/05/18 01:50:40;;;;;;;8.85;7.9;;;;;;;11.29;76.97754;95843.53;;;;
2022/05/18 01:51:43;;;;;;;8.65;7.749999;;;;;;;11.23;77.22656;95849.64;;;;
2022/05/18 01:52:46;;;;;;;8.65;7.749999;;;;;;;11.23;77.22656;95849.64;;;;
2022/05/18 01:53:46;;;;;;;8.65;7.749999;;;;;;;11.23;77.22656;95849.64;;;;
2022/05/18 01:54:47;;;;;;;8.65;7.749999;;;;;;;11.23;77.22656;95849.64;;;;
2022/05/18 01:55:48;;;;;;;8.65;7.749999;;;;;;;11.23;77.22656;95849.64;;;;
2022/05/18 01:56:48;;;;;;;8.65;7.749999;;;;;;;11.23;77.22656;95849.64;;;;
2022/05/18 01:57:49;;;;;;;8.65;7.749999;;;;;;;11.23;77.22656;95849.64;;;;
2022/05/18 01:58:49;;;;;;;8.65;7.749999;;;;;;;11.23;77.22656;95849.64;;;;
2022/05/18 01:59:50;;;;;;;8.65;7.749999;;;;;;;11.23;77.22656;95849.64;;;;
2022/05/18 02:00:51;;;;;;;8.65;7.749999;;;;;;;11.23;77.22656;95849.64;;;;
2022/05/18 02:01:52;;;;;;;8.65;7.749999;;;;;;;11.23;77.22656;95849.64;;;;
2022/05/18 02:02:53;;;;;;;8.699999;7.85;;;;;;;11.07;77.37207;95848.6;;;;
2022/05/18 02:03:53;;;;;;;8.699999;7.85;;;;;;;11.07;77.37207;95848.6;;;;
2022/05/18 02:04:55;;;;;;;8.699999;7.85;;;;;;;11.07;77.37207;95848.6;;;;
2022/05/18 02:05:55;;;;;;;8.699999;7.85;;;;;;;11.07;77.37207;95848.6;;;;
2022/05/18 02:06:56;;;;;;;8.699999;7.85;;;;;;;11.07;77.37207;95848.6;;;;
2022/05/18 02:07:57;;;;;;;8.699999;7.85;;;;;;;11.07;77.37207;95848.6;;;;
2022/05/18 02:08:58;;;;;;;8.699999;7.85;;;;;;;11.07;77.37207;95848.6;;;;
2022/05/18 02:09:59;;;;;;;8.699999;7.85;;;;;;;11.07;77.37207;95848.6;;;;
2022/05/18 02:11:00;;;;;;;8.699999;7.85;;;;;;;11.07;77.37207;95848.6;;;;
2022/05/18 02:12:00;;;;;;;8.699999;7.85;;;;;;;11.07;77.37207;95848.6;;;;
2022/05/18 02:13:01;;;;;;;9.15;8.25;;;;;;;10.98;77.60254;95857.33;;;;
2022/05/18 02:14:02;;;;;;;9.15;8.25;;;;;;;10.98;77.60254;95857.33;;;;
2022/05/18 02:15:03;;;;;;;9.15;8.25;;;;;;;10.98;77.60254;95857.33;;;;
2022/05/18 02:16:05;;;;;;;9.15;8.25;;;;;;;10.98;77.60254;95857.33;;;;
2022/05/18 02:17:06;;;;;;;9.15;8.25;;;;;;;10.98;77.60254;95857.33;;;;
2022/05/18 02:18:07;;;;;;;9.15;8.25;;;;;;;10.98;77.60254;95857.33;;;;
2022/05/18 02:19:08;;;;;;;9.15;8.25;;;;;;;10.98;77.60254;95857.33;;;;
2022/05/18 02:20:08;;;;;;;9.15;8.25;;;;;;;10.98;77.60254;95857.33;;;;
2022/05/18 02:21:11;;;;;;;9.15;8.25;;;;;;;10.98;77.60254;95857.33;;;;
2022/05/18 02:22:12;;;;;;;9.15;8.25;;;;;;;10.98;77.60254;95857.33;;;;
2022/05/18 02:23:12;;;;;;;9.15;8.25;;;;;;;10.98;77.60254;95857.33;;;;
2022/05/18 02:24:13;;;;;;;9.900001;8.900002;;;;;;;10.83;77.79297;95858.81;;;;
2022/05/18 02:25:13;;;;;;;9.900001;8.900002;;;;;;;10.83;77.79297;95858.81;;;;
2022/05/18 02:26:15;;;;;;;9.900001;8.900002;;;;;;;10.83;77.79297;95858.81;;;;
2022/05/18 02:27:17;;;;;;;9.900001;8.900002;;;;;;;10.83;77.79297;95858.81;;;;
2022/05/18 02:28:18;;;;;;;9.900001;8.900002;;;;;;;10.83;77.79297;95858.81;;;;
2022/05/18 02:29:18;;;;;;;9.900001;8.900002;;;;;;;10.83;77.79297;95858.81;;;;
2022/05/18 02:30:19;;;;;;;9.900001;8.900002;;;;;;;10.83;77.79297;95858.81;;;;
2022/05/18 02:31:19;;;;;;;9.900001;8.900002;;;;;;;10.83;77.79297;95858.81;;;;
2022/05/18 02:32:20;;;;;;;9.900001;8.900002;;;;;;;10.83;77.79297;95858.81;;;;
2022/05/18 02:33:20;;;;;;;9.900001;8.900002;;;;;;;10.83;77.79297;95858.81;;;;
2022/05/18 02:34:21;;;;;;;9.300001;8.1;;;;;;;10.78;78.0293;95853.83;;;;
2022/05/18 02:35:21;;;;;;;9.300001;8.1;;;;;;;10.78;78.0293;95853.83;;;;
2022/05/18 02:36:22;;;;;;;9.300001;8.1;;;;;;;10.78;78.0293;95853.83;;;;
2022/05/18 02:37:22;;;;;;;9.300001;8.1;;;;;;;10.78;78.0293;95853.83;;;;
2022/05/18 02:38:23;;;;;;;9.300001;8.1;;;;;;;10.78;78.0293;95853.83;;;;
2022/05/18 02:39:24;;;;;;;9.300001;8.1;;;;;;;10.78;78.0293;95853.83;;;;
2022/05/18 02:40:24;;;;;;;9.300001;8.1;;;;;;;10.78;78.0293;95853.83;;;;
2022/05/18 02:41:25;;;;;;;9.300001;8.1;;;;;;;10.78;78.0293;95853.83;;;;
2022/05/18 02:42:25;;;;;;;9.300001;8.1;;;;;;;10.78;78.0293;95853.83;;;;
2022/05/18 02:43:26;;;;;;;9.300001;8.1;;;;;;;10.78;78.0293;95853.83;;;;
2022/05/18 02:44:27;;;;;;;9.300001;8.1;;;;;;;10.78;78.0293;95853.83;;;;
2022/05/18 02:45:28;;;;;;;9.649999;8.649999;;;;;;;10.66;78.17871;95871.26;;;;
2022/05/18 02:46:28;;;;;;;9.649999;8.649999;;;;;;;10.66;78.17871;95871.26;;;;
2022/05/18 02:47:29;;;;;;;9.649999;8.649999;;;;;;;10.66;78.17871;95871.26;;;;
2022/05/18 02:48:29;;;;;;;9.649999;8.649999;;;;;;;10.66;78.17871;95871.26;;;;
2022/05/18 02:49:31;;;;;;;9.649999;8.649999;;;;;;;10.66;78.17871;95871.26;;;;
2022/05/18 02:50:33;;;;;;;9.649999;8.649999;;;;;;;10.66;78.17871;95871.26;;;;
2022/05/18 02:51:33;;;;;;;9.649999;8.649999;;;;;;;10.66;78.17871;95871.26;;;;
2022/05/18 02:52:35;;;;;;;9.649999;8.649999;;;;;;;10.66;78.17871;95871.26;;;;
2022/05/18 02:53:35;;;;;;;9.649999;8.649999;;;;;;;10.66;78.17871;95871.26;;;;
2022/05/18 02:59:52;;;;;;;11.15;9.050001;;;;;;;10.59;78.44727;95884.46;;;;
2022/05/18 03:00:53;;;;;;;11.15;9.050001;;;;;;;10.59;78.44727;95884.46;;;;
2022/05/18 03:01:54;;;;;;;11.15;9.050001;;;;;;;10.59;78.44727;95884.46;;;;
2022/05/18 03:02:54;;;;;;;11.15;9.050001;;;;;;;10.59;78.44727;95884.46;;;;
2022/05/18 03:03:55;;;;;;;11.15;9.050001;;;;;;;10.59;78.44727;95884.46;;;;
2022/05/18 03:04:55;;;;;;;11.15;9.050001;;;;;;;10.59;78.44727;95884.46;;;;
2022/05/18 03:05:56;;;;;;;11.15;9.050001;;;;;;;10.59;78.44727;95884.46;;;;
2022/05/18 03:06:56;;;;;;;10.65;9.050001;;;;;;;10.47;78.68457;95883.91;;;;
2022/05/18 03:07:58;;;;;;;10.65;9.050001;;;;;;;10.47;78.68457;95883.91;;;;
2022/05/18 03:08:59;;;;;;;10.65;9.050001;;;;;;;10.47;78.68457;95883.91;;;;
2022/05/18 03:09:59;;;;;;;10.65;9.050001;;;;;;;10.47;78.68457;95883.91;;;;
2022/05/18 03:11:00;;;;;;;10.65;9.050001;;;;;;;10.47;78.68457;95883.91;;;;
2022/05/18 03:12:01;;;;;;;10.65;9.050001;;;;;;;10.47;78.68457;95883.91;;;;
2022/05/18 03:13:02;;;;;;;10.65;9.050001;;;;;;;10.47;78.68457;95883.91;;;;
2022/05/18 03:14:03;;;;;;;10.65;9.050001;;;;;;;10.47;78.68457;95883.91;;;;
2022/05/18 03:15:03;;;;;;;10.65;9.050001;;;;;;;10.47;78.68457;95883.91;;;;
2022/05/18 03:16:05;;;;;;;10.65;9.050001;;;;;;;10.47;78.68457;95883.91;;;;
2022/05/18 03:17:06;;;;;;;11.5;9.550001;;;;;;;10.4;78.90723;95891.39;;;;
2022/05/18 03:18:07;;;;;;;11.5;9.550001;;;;;;;10.4;78.90723;95891.39;;;;
2022/05/18 03:19:07;;;;;;;11.5;9.550001;;;;;;;10.4;78.90723;95891.39;;;;
2022/05/18 03:20:08;;;;;;;11.5;9.550001;;;;;;;10.4;78.90723;95891.39;;;;
2022/05/18 03:26:22;;;;;;;11.5;9.550001;;;;;;;10.4;78.90723;95891.39;;;;
2022/05/18 03:27:24;;;;;;;10;9.000001;;;;;;;10.3;79.07324;95900.58;;;;
2022/05/18 03:28:24;;;;;;;10;9.000001;;;;;;;10.3;79.07324;95900.58;;;;
2022/05/18 03:29:24;;;;;;;10;9.000001;;;;;;;10.3;79.07324;95900.58;;;;
2022/05/18 03:30:25;;;;;;;10;9.000001;;;;;;;10.3;79.07324;95900.58;;;;
2022/05/18 03:31:26;;;;;;;10;9.000001;;;;;;;10.3;79.07324;95900.58;;;;
2022/05/18 03:32:27;;;;;;;10;9.000001;;;;;;;10.3;79.07324;95900.58;;;;
2022/05/18 03:33:27;;;;;;;10;9.000001;;;;;;;10.3;79.07324;95900.58;;;;
2022/05/18 03:34:28;;;;;;;10;9.000001;;;;;;;10.3;79.07324;95900.58;;;;
2022/05/18 03:35:29;;;;;;;10;9.000001;;;;;;;10.3;79.07324;95900.58;;;;
2022/05/18 03:36:29;;;;;;;10;9.000001;;;;;;;10.3;79.07324;95900.58;;;;
2022/05/18 03:37:30;;;;;;;10;9.000001;;;;;;;10.3;79.07324;95900.58;;;;
2022/05/18 03:38:30;;;;;;;11.15;8.9;;;;;;;10.3;79.2666;95909.83;;;;
2022/05/18 03:39:31;;;;;;;11.15;8.9;;;;;;;10.3;79.2666;95909.83;;;;
2022/05/18 03:40:32;;;;;;;11.15;8.9;;;;;;;10.3;79.2666;95909.83;;;;
2022/05/18 03:41:34;;;;;;;11.15;8.9;;;;;;;10.3;79.2666;95909.83;;;;
2022/05/18 03:42:35;;;;;;;11.15;8.9;;;;;;;10.3;79.2666;95909.83;;;;
2022/05/18 03:43:35;;;;;;;11.15;8.9;;;;;;;10.3;79.2666;95909.83;;;;
2022/05/18 03:44:37;;;;;;;11.15;8.9;;;;;;;10.3;79.2666;95909.83;;;;
2022/05/18 03:45:37;;;;;;;11.15;8.9;;;;;;;10.3;79.2666;95909.83;;;;
2022/05/18 03:46:39;;;;;;;11.15;8.9;;;;;;;10.3;79.2666;95909.83;;;;
2022/05/18 03:47:41;;;;;;;11.15;8.9;;;;;;;10.3;79.2666;95909.83;;;;
2022/05/18 03:48:42;;;;;;;11.15;8.9;;;;;;;10.3;79.2666;95909.83;;;;
2022/05/18 03:49:43;;;;;;;9.15;8.25;;;;;;;10.27;79.39844;95929.63;;;;
2022/05/18 03:50:43;;;;;;;9.15;8.25;;;;;;;10.27;79.39844;95929.63;;;;
2022/05/18 03:51:47;;;;;;;9.15;8.25;;;;;;;10.27;79.39844;95929.63;;;;
2022/05/18 03:52:48;;;;;;;9.15;8.25;;;;;;;10.27;79.39844;95929.63;;;;
2022/05/18 03:53:49;;;;;;;9.15;8.25;;;;;;;10.27;79.39844;95929.63;;;;
2022/05/18 03:54:50;;;;;;;9.15;8.25;;;;;;;10.27;79.39844;95929.63;;;;
2022/05/18 03:55:50;;;;;;;9.15;8.25;;;;;;;10.27;79.39844;95929.63;;;;
2022/05/18 03:56:51;;;;;;;9.15;8.25;;;;;;;10.27;79.39844;95929.63;;;;
2022/05/18 03:57:52;;;;;;;9.15;8.25;;;;;;;10.27;79.39844;95929.63;;;;
2022/05/18 03:58:52;;;;;;;9.15;8.25;;;;;;;10.27;79.39844;95929.63;;;;
2022/05/18 03:59:53;;;;;;;9.700001;8.75;;;;;;;10.33;79.50781;95924.38;;;;
2022/05/18 04:00:54;;;;;;;9.700001;8.75;;;;;;;10.33;79.50781;95924.38;;;;
2022/05/18 04:01:56;;;;;;;9.700001;8.75;;;;;;;10.33;79.50781;95924.38;;;;
2022/05/18 04:02:56;;;;;;;9.700001;8.75;;;;;;;10.33;79.50781;95924.38;;;;
2022/05/18 04:03:56;;;;;;;9.700001;8.75;;;;;;;10.33;79.50781;95924.38;;;;
2022/05/18 04:04:57;;;;;;;9.700001;8.75;;;;;;;10.33;79.50781;95924.38;;;;
2022/05/18 04:05:57;;;;;;;9.700001;8.75;;;;;;;10.33;79.50781;95924.38;;;;
2022/05/18 04:06:58;;;;;;;9.700001;8.75;;;;;;;10.33;79.50781;95924.38;;;;
2022/05/18 04:07:59;;;;;;;9.700001;8.75;;;;;;;10.33;79.50781;95924.38;;;;
2022/05/18 04:08:59;;;;;;;9.700001;8.75;;;;;;;10.33;79.50781;95924.38;;;;
2022/05/18 04:10:00;;;;;;;9.700001;8.75;;;;;;;10.33;79.50781;95924.38;;;;
2022/05/18 04:11:00;;;;;;;10.1;8.599999;;;;;;;10.35;79.51074;95927.66;;;;
2022/05/18 04:12:01;;;;;;;10.1;8.599999;;;;;;;10.35;79.51074;95927.66;;;;
2022/05/18 04:13:02;;;;;;;10.1;8.599999;;;;;;;10.35;79.51074;95927.66;;;;
2022/05/18 04:14:03;;;;;;;10.1;8.599999;;;;;;;10.35;79.51074;95927.66;;;;
2022/05/18 04:15:03;;;;;;;10.1;8.599999;;;;;;;10.35;79.51074;95927.66;;;;
2022/05/18 04:16:05;;;;;;;10.1;8.599999;;;;;;;10.35;79.51074;95927.66;;;;
2022/05/18 04:17:05;;;;;;;10.1;8.599999;;;;;;;10.35;79.51074;95927.66;;;;
2022/05/18 04:18:06;;;;;;;10.1;8.599999;;;;;;;10.35;79.51074;95927.66;;;;
2022/05/18 04:19:07;;;;;;;10.1;8.599999;;;;;;;10.35;79.51074;95927.66;;;;
2022/05/18 04:20:07;;;;;;;10.1;8.599999;;;;;;;10.35;79.51074;95927.66;;;;
2022/05/18 04:21:09;;;;;;;10.5;9.200001;;;;;;;10.49;79.61133;95929.44;;;;
2022/05/18 04:22:09;;;;;;;10.5;9.200001;;;;;;;10.49;79.61133;95929.44;;;;
2022/05/18 04:23:10;;;;;;;10.5;9.200001;;;;;;;10.49;79.61133;95929.44;;;;
2022/05/18 04:24:12;;;;;;;10.5;9.200001;;;;;;;10.49;79.61133;95929.44;;;;
2022/05/18 04:25:12;;;;;;;10.5;9.200001;;;;;;;10.49;79.61133;95929.44;;;;
2022/05/18 04:26:16;;;;;;;10.5;9.200001;;;;;;;10.49;79.61133;95929.44;;;;
2022/05/18 04:27:16;;;;;;;10.5;9.200001;;;;;;;10.49;79.61133;95929.44;;;;
2022/05/18 04:28:17;;;;;;;10.5;9.200001;;;;;;;10.49;79.61133;95929.44;;;;
2022/05/18 04:29:18;;;;;;;10.5;9.200001;;;;;;;10.49;79.61133;95929.44;;;;
2022/05/18 04:30:18;;;;;;;10.5;9.200001;;;;;;;10.49;79.61133;95929.44;;;;
2022/05/18 04:31:21;;;;;;;10.5;9.200001;;;;;;;10.49;79.61133;95929.44;;;;
2022/05/18 04:32:22;;;;;;;10.55;9.450001;;;;;;;10.59;79.61816;95937.33;;;;
2022/05/18 04:33:23;;;;;;;10.55;9.450001;;;;;;;10.59;79.61816;95937.33;;;;
2022/05/18 04:34:25;;;;;;;10.55;9.450001;;;;;;;10.59;79.61816;95937.33;;;;
2022/05/18 04:35:26;;;;;;;10.55;9.450001;;;;;;;10.59;79.61816;95937.33;;;;
2022/05/18 04:36:28;;;;;;;10.55;9.450001;;;;;;;10.59;79.61816;95937.33;;;;
2022/05/18 04:37:29;;;;;;;10.55;9.450001;;;;;;;10.59;79.61816;95937.33;;;;
2022/05/18 04:38:30;;;;;;;10.55;9.450001;;;;;;;10.59;79.61816;95937.33;;;;
2022/05/18 04:41:30;;;;;;;10.55;9.450001;;;;;;;10.59;79.61816;95937.33;;;;
2022/05/18 04:42:31;;;;;;;9.65;8.6;;;;;;;10.77;79.80273;95950.85;;;;
2022/05/18 04:43:32;;;;;;;9.65;8.6;;;;;;;10.77;79.80273;95950.85;;;;
2022/05/18 04:44:33;;;;;;;9.65;8.6;;;;;;;10.77;79.80273;95950.85;;;;
2022/05/18 04:45:33;;;;;;;9.65;8.6;;;;;;;10.77;79.80273;95950.85;;;;
2022/05/18 04:46:34;;;;;;;9.65;8.6;;;;;;;10.77;79.80273;95950.85;;;;
2022/05/18 04:47:34;;;;;;;9.65;8.6;;;;;;;10.77;79.80273;95950.85;;;;
2022/05/18 04:48:35;;;;;;;9.65;8.6;;;;;;;10.77;79.80273;95950.85;;;;
2022/05/18 04:49:36;;;;;;;9.65;8.6;;;;;;;10.77;79.80273;95950.85;;;;
2022/05/18 04:50:36;;;;;;;9.65;8.6;;;;;;;10.77;79.80273;95950.85;;;;
2022/05/18 04:51:36;;;;;;;9.65;8.6;;;;;;;10.77;79.80273;95950.85;;;;
2022/05/18 04:52:37;;;;;;;9.65;8.6;;;;;;;10.77;79.80273;95950.85;;;;
2022/05/18 04:53:38;;;;;;;10.35;9.25;;;;;;;11.13;79.73828;95974.41;;;;
2022/05/18 04:54:38;;;;;;;10.35;9.25;;;;;;;11.13;79.73828;95974.41;;;;
2022/05/18 04:55:39;;;;;;;10.35;9.25;;;;;;;11.13;79.73828;95974.41;;;;
2022/05/18 04:56:39;;;;;;;10.35;9.25;;;;;;;11.13;79.73828;95974.41;;;;
2022/05/18 04:57:40;;;;;;;10.35;9.25;;;;;;;11.13;79.73828;95974.41;;;;
2022/05/18 04:58:41;;;;;;;10.35;9.25;;;;;;;11.13;79.73828;95974.41;;;;
2022/05/18 04:59:41;;;;;;;10.35;9.25;;;;;;;11.13;79.73828;95974.41;;;;
2022/05/18 05:00:42;;;;;;;10.35;9.25;;;;;;;11.13;79.73828;95974.41;;;;
2022/05/18 05:01:45;;;;;;;10.35;9.25;;;;;;;11.13;79.73828;95974.41;;;;
2022/05/18 05:02:45;;;;;;;10.35;9.25;;;;;;;11.13;79.73828;95974.41;;;;
2022/05/18 05:03:46;;;;;;;9.399999;8.5;;;;;;;11.44;79.58984;95971.23;;;;
2022/05/18 05:04:46;;;;;;;9.399999;8.5;;;;;;;11.44;79.58984;95971.23;;;;
2022/05/18 05:05:47;;;;;;;9.399999;8.5;;;;;;;11.44;79.58984;95971.23;;;;
2022/05/18 05:06:47;;;;;;;9.399999;8.5;;;;;;;11.44;79.58984;95971.23;;;;
2022/05/18 05:07:48;;;;;;;9.399999;8.5;;;;;;;11.44;79.58984;95971.23;;;;
2022/05/18 05:08:48;;;;;;;9.399999;8.5;;;;;;;11.44;79.58984;95971.23;;;;
2022/05/18 05:09:49;;;;;;;9.399999;8.5;;;;;;;11.44;79.58984;95971.23;;;;
2022/05/18 05:10:49;;;;;;;9.399999;8.5;;;;;;;11.44;79.58984;95971.23;;;;
2022/05/18 05:11:50;;;;;;;9.399999;8.5;;;;;;;11.44;79.58984;95971.23;;;;
2022/05/18 05:12:51;;;;;;;9.399999;8.5;;;;;;;11.44;79.58984;95971.23;;;;
2022/05/18 05:13:52;;;;;;;9.399999;8.5;;;;;;;11.44;79.58984;95971.23;;;;
2022/05/18 05:14:53;;;;;;;10.6;8.550001;;;;;;;11.92;79.51563;95978.97;;;;
2022/05/18 05:15:55;;;;;;;10.6;8.550001;;;;;;;11.92;79.51563;95978.97;;;;
2022/05/18 05:17:01;;;;;;;10.6;8.550001;;;;;;;11.92;79.51563;95978.97;;;;
2022/05/18 05:18:01;;;;;;;10.6;8.550001;;;;;;;11.92;79.51563;95978.97;;;;
2022/05/18 05:19:02;;;;;;;10.6;8.550001;;;;;;;11.92;79.51563;95978.97;;;;
2022/05/18 05:20:03;;;;;;;10.6;8.550001;;;;;;;11.92;79.51563;95978.97;;;;
2022/05/18 05:21:05;;;;;;;10.6;8.550001;;;;;;;11.92;79.51563;95978.97;;;;
2022/05/18 05:22:05;;;;;;;10.6;8.550001;;;;;;;11.92;79.51563;95978.97;;;;
2022/05/18 05:23:06;;;;;;;10.6;8.550001;;;;;;;11.92;79.51563;95978.97;;;;
2022/05/18 05:24:06;;;;;;;10.6;8.550001;;;;;;;11.92;79.51563;95978.97;;;;
2022/05/18 05:25:08;;;;;;;10.5;8.550001;;;;;;;12.47;79.15137;95997.1;;;;
2022/05/18 05:26:09;;;;;;;10.5;8.550001;;;;;;;12.47;79.15137;95997.1;;;;
2022/05/18 05:27:10;;;;;;;10.5;8.550001;;;;;;;12.47;79.15137;95997.1;;;;
2022/05/18 05:28:10;;;;;;;10.5;8.550001;;;;;;;12.47;79.15137;95997.1;;;;
2022/05/18 05:29:11;;;;;;;10.5;8.550001;;;;;;;12.47;79.15137;95997.1;;;;
2022/05/18 05:30:12;;;;;;;10.5;8.550001;;;;;;;12.47;79.15137;95997.1;;;;
2022/05/18 05:31:13;;;;;;;10.5;8.550001;;;;;;;12.47;79.15137;95997.1;;;;
2022/05/18 05:32:14;;;;;;;10.5;8.550001;;;;;;;12.47;79.15137;95997.1;;;;
2022/05/18 05:33:14;;;;;;;10.5;8.550001;;;;;;;12.47;79.15137;95997.1;;;;
2022/05/18 05:34:15;;;;;;;10.5;8.550001;;;;;;;12.47;79.15137;95997.1;;;;
2022/05/18 05:35:16;;;;;;;10.5;8.550001;;;;;;;12.47;79.15137;95997.1;;;;
2022/05/18 05:36:16;;;;;;;9.400002;8.299999;;;;;;;13.09;78.93945;95999.16;;;;
2022/05/18 05:37:17;;;;;;;9.400002;8.299999;;;;;;;13.09;78.93945;95999.16;;;;
2022/05/18 05:38:17;;;;;;;9.400002;8.299999;;;;;;;13.09;78.93945;95999.16;;;;
2022/05/18 05:39:20;;;;;;;9.400002;8.299999;;;;;;;13.09;78.93945;95999.16;;;;
2022/05/18 05:40:20;;;;;;;9.400002;8.299999;;;;;;;13.09;78.93945;95999.16;;;;
2022/05/18 05:41:21;;;;;;;9.400002;8.299999;;;;;;;13.09;78.93945;95999.16;;;;
2022/05/18 05:42:22;;;;;;;9.400002;8.299999;;;;;;;13.09;78.93945;95999.16;;;;
2022/05/18 05:43:23;;;;;;;9.400002;8.299999;;;;;;;13.09;78.93945;95999.16;;;;
2022/05/18 05:44:24;;;;;;;9.400002;8.299999;;;;;;;13.09;78.93945;95999.16;;;;